Time;durP1;ratioP1;P1;durP2;ratioP2;P2;SDS_P1;SDS_P2;PMS_P1;PMS_P2;Temp;Humidity;BMP_temperature;BMP_pressure;BME280_temperature;BME280_humidity;BME280_pressure;Samples;Min_cycle;Max_cycle;Signal;HPM_P1;HPM_P2
2024/01/20 00:01:48;;;;;;;16.53;9.43;;;-3.90;99.90;;;;;;5073698;28;20261;-67
2024/01/20 00:04:13;;;;;;;14.80;8.60;;;-3.90;99.90;;;;;;5073006;28;20279;-69
2024/01/20 00:06:39;;;;;;;14.13;9.43;;;-3.90;99.90;;;;;;5072107;28;20495;-68
2024/01/20 00:09:05;;;;;;;16.53;9.93;;;-3.90;99.90;;;;;;5068907;28;20169;-69
2024/01/20 00:11:30;;;;;;;14.90;9.47;;;-3.90;99.90;;;;;;5070719;28;20186;-73
2024/01/20 00:13:56;;;;;;;20.77;11.53;;;-3.90;99.90;;;;;;5046208;28;20332;-70
2024/01/20 00:16:22;;;;;;;18.20;9.37;;;-3.90;99.90;;;;;;5077099;28;20197;-70
2024/01/20 00:18:47;;;;;;;11.57;7.50;;;-3.90;99.90;;;;;;5064632;28;20221;-70
2024/01/20 00:21:14;;;;;;;16.50;10.50;;;-3.90;99.90;;;;;;5067257;28;20197;-70
2024/01/20 00:23:39;;;;;;;12.30;8.80;;;-4.00;99.90;;;;;;5068288;28;20200;-68
2024/01/20 00:26:05;;;;;;;17.17;9.20;;;-4.00;99.90;;;;;;5073776;28;20435;-69
2024/01/20 00:28:30;;;;;;;18.90;11.60;;;-4.00;99.90;;;;;;5070400;28;20212;-68
2024/01/20 00:30:56;;;;;;;13.40;8.50;;;-4.00;99.90;;;;;;5067163;28;20604;-69
2024/01/20 00:33:22;;;;;;;15.70;9.20;;;-4.00;99.90;;;;;;5072633;28;20193;-69
2024/01/20 00:35:47;;;;;;;18.77;10.03;;;-4.00;99.90;;;;;;5074139;28;20217;-68
2024/01/20 00:38:13;;;;;;;17.23;10.97;;;-4.00;99.90;;;;;;5072710;28;20203;-68
2024/01/20 00:40:40;;;;;;;18.40;10.43;;;-4.00;99.90;;;;;;5062171;28;20192;-69
2024/01/20 00:43:06;;;;;;;18.40;10.53;;;-4.00;99.90;;;;;;5066742;28;21050;-67
2024/01/20 00:45:31;;;;;;;15.97;9.90;;;-4.00;99.90;;;;;;5071703;28;20435;-68
2024/01/20 00:47:57;;;;;;;16.90;10.40;;;-4.00;99.90;;;;;;5063306;28;20193;-68
2024/01/20 00:50:23;;;;;;;15.47;9.83;;;-4.00;99.90;;;;;;5073592;28;20212;-69
2024/01/20 00:52:49;;;;;;;18.33;11.20;;;-4.00;99.90;;;;;;5079576;28;20536;-69
2024/01/20 00:55:14;;;;;;;18.00;11.00;;;-4.10;99.90;;;;;;5071912;28;20447;-69
2024/01/20 00:57:40;;;;;;;21.27;10.53;;;-4.10;99.90;;;;;;5062976;28;20193;-68
2024/01/20 01:00:09;;;;;;;15.53;9.87;;;-4.10;99.90;;;;;;5062822;28;20194;-69
2024/01/20 01:02:39;;;;;;;19.67;11.40;;;-4.10;99.90;;;;;;5048563;28;20189;-68
2024/01/20 01:05:05;;;;;;;18.43;10.70;;;-4.10;99.90;;;;;;5076285;28;20774;-71
2024/01/20 01:07:32;;;;;;;17.20;9.37;;;-4.10;99.90;;;;;;5069613;28;20427;-69
2024/01/20 01:09:58;;;;;;;19.10;9.63;;;-4.10;99.90;;;;;;5048912;28;20432;-69
2024/01/20 01:12:24;;;;;;;16.90;10.40;;;-4.10;99.90;;;;;;5078434;28;20950;-70
2024/01/20 01:14:50;;;;;;;16.50;9.37;;;-4.10;99.90;;;;;;5070164;28;20185;-71
2024/01/20 01:17:19;;;;;;;18.33;11.00;;;-4.20;99.90;;;;;;5064112;28;20518;-68
2024/01/20 01:19:45;;;;;;;20.10;11.57;;;-4.20;99.90;;;;;;5060629;28;20252;-68
2024/01/20 01:22:11;;;;;;;18.70;11.03;;;-4.10;99.90;;;;;;5062190;28;20415;-69
2024/01/20 01:24:37;;;;;;;23.50;11.43;;;-4.20;99.90;;;;;;5076078;28;20412;-66
2024/01/20 01:27:05;;;;;;;20.50;12.90;;;-4.10;99.90;;;;;;5009995;28;20221;-71
2024/01/20 01:29:30;;;;;;;19.00;11.60;;;-4.10;99.90;;;;;;5015516;28;20426;-69
2024/01/20 01:31:56;;;;;;;20.63;12.43;;;-4.10;99.90;;;;;;5009755;28;20429;-69
2024/01/20 01:34:22;;;;;;;24.40;12.07;;;-4.20;99.90;;;;;;5014367;28;20202;-70
2024/01/20 01:36:48;;;;;;;17.70;10.07;;;-4.30;99.90;;;;;;5004350;28;20207;-68
2024/01/20 01:39:15;;;;;;;17.23;11.10;;;-4.20;99.90;;;;;;5009258;28;20207;-69
2024/01/20 01:41:41;;;;;;;17.27;10.50;;;-4.20;99.90;;;;;;5020615;28;20739;-68
2024/01/20 01:44:06;;;;;;;18.97;11.37;;;-4.30;99.90;;;;;;5003416;28;20506;-70
2024/01/20 01:46:32;;;;;;;17.30;11.30;;;-4.40;99.90;;;;;;4997882;28;20263;-68
2024/01/20 01:48:58;;;;;;;23.97;11.83;;;-4.30;99.90;;;;;;5005466;28;20200;-70
2024/01/20 01:51:24;;;;;;;19.23;10.83;;;-4.30;99.90;;;;;;5005367;28;20658;-69
2024/01/20 01:53:50;;;;;;;18.73;12.00;;;-4.30;99.90;;;;;;5004874;28;20505;-68
2024/01/20 01:56:16;;;;;;;24.30;12.53;;;-4.40;99.90;;;;;;5018734;28;20241;-69
2024/01/20 01:58:43;;;;;;;25.20;11.20;;;-4.40;99.90;;;;;;5050082;28;20471;-71
2024/01/20 02:01:08;;;;;;;18.50;11.53;;;-4.50;99.90;;;;;;5070526;28;20427;-69
2024/01/20 02:03:34;;;;;;;22.10;12.10;;;-4.50;99.90;;;;;;5058591;28;20482;-69
2024/01/20 02:06:00;;;;;;;24.70;12.63;;;-4.50;99.90;;;;;;5082286;28;20289;-69
2024/01/20 02:08:27;;;;;;;20.00;12.90;;;-4.50;99.90;;;;;;5067112;28;20514;-69
2024/01/20 02:10:52;;;;;;;24.90;14.03;;;-4.60;99.90;;;;;;5073419;28;20197;-69
2024/01/20 02:13:20;;;;;;;26.20;14.90;;;-4.60;99.90;;;;;;5062714;28;20811;-71
2024/01/20 02:15:46;;;;;;;26.60;14.60;;;-4.50;99.90;;;;;;5069235;28;20729;-71
2024/01/20 02:18:12;;;;;;;26.17;13.50;;;-4.60;99.90;;;;;;5061153;28;20499;-69
2024/01/20 02:20:37;;;;;;;23.23;13.83;;;-4.60;99.90;;;;;;5060095;28;20404;-69
2024/01/20 02:23:03;;;;;;;26.40;13.60;;;-4.60;99.90;;;;;;5063299;28;20189;-69
2024/01/20 02:25:29;;;;;;;25.83;13.90;;;-4.60;99.90;;;;;;5070965;28;20220;-68
2024/01/20 02:27:54;;;;;;;22.60;12.07;;;-4.70;99.90;;;;;;5072159;28;20205;-69
2024/01/20 02:30:20;;;;;;;22.67;13.70;;;-4.70;99.90;;;;;;5071174;28;20204;-69
2024/01/20 02:32:46;;;;;;;23.40;14.57;;;-4.70;99.90;;;;;;5061141;28;20266;-69
2024/01/20 02:35:12;;;;;;;30.07;15.73;;;-4.70;99.90;;;;;;5075814;28;20458;-68
2024/01/20 02:37:37;;;;;;;25.93;15.17;;;-4.70;99.90;;;;;;5064252;28;20247;-69
2024/01/20 02:40:04;;;;;;;26.00;14.90;;;-4.70;99.90;;;;;;5060791;28;20471;-71
2024/01/20 02:42:29;;;;;;;28.03;15.63;;;-4.80;99.90;;;;;;5072478;28;21064;-70
2024/01/20 02:44:55;;;;;;;33.43;16.00;;;-4.80;99.90;;;;;;5076295;28;20591;-69
2024/01/20 02:47:21;;;;;;;29.90;15.77;;;-4.70;99.90;;;;;;5056256;28;20197;-67
2024/01/20 02:49:46;;;;;;;36.23;18.93;;;-4.70;99.90;;;;;;5070551;28;20201;-71
2024/01/20 02:52:12;;;;;;;31.40;16.57;;;-4.70;99.90;;;;;;5071174;28;20244;-69
2024/01/20 02:54:37;;;;;;;34.73;16.93;;;-4.70;99.90;;;;;;5066740;28;20697;-68
2024/01/20 02:57:03;;;;;;;28.33;16.07;;;-4.80;99.90;;;;;;5068201;28;20298;-70
2024/01/20 02:59:29;;;;;;;25.63;15.60;;;-4.70;99.90;;;;;;5063767;28;20221;-67
2024/01/20 03:01:55;;;;;;;35.30;18.63;;;-4.80;99.90;;;;;;5073831;28;20704;-67
2024/01/20 03:04:20;;;;;;;31.47;16.70;;;-4.80;99.90;;;;;;5056494;28;20204;-70
2024/01/20 03:06:46;;;;;;;39.03;16.57;;;-4.80;99.90;;;;;;5074747;28;20205;-68
2024/01/20 03:09:14;;;;;;;29.27;16.57;;;-4.80;99.90;;;;;;5075992;28;20262;-69
2024/01/20 03:11:42;;;;;;;32.43;16.33;;;-4.90;99.90;;;;;;5062974;28;20194;-67
2024/01/20 03:14:11;;;;;;;33.83;17.37;;;-4.90;99.90;;;;;;5071712;28;20761;-72
2024/01/20 03:16:38;;;;;;;32.30;18.07;;;-4.90;99.90;;;;;;5068405;28;20427;-67
2024/01/20 03:19:04;;;;;;;35.60;17.53;;;-5.00;99.90;;;;;;5057470;28;20468;-67
2024/01/20 03:21:30;;;;;;;31.50;17.47;;;-4.90;99.90;;;;;;5053364;28;20416;-68
2024/01/20 03:23:55;;;;;;;36.23;17.50;;;-5.00;99.90;;;;;;5070883;28;20423;-68
2024/01/20 03:26:21;;;;;;;35.30;19.10;;;-4.90;99.90;;;;;;5060519;28;20209;-70
2024/01/20 03:28:48;;;;;;;36.33;18.20;;;-5.00;99.90;;;;;;5063493;28;20491;-69
2024/01/20 03:31:13;;;;;;;39.73;17.50;;;-5.00;99.90;;;;;;5062759;28;20443;-70
2024/01/20 03:33:39;;;;;;;39.23;18.87;;;-5.10;99.90;;;;;;5068973;28;20423;-70
2024/01/20 03:36:05;;;;;;;32.83;18.90;;;-5.10;99.90;;;;;;5058670;28;20559;-66
2024/01/20 03:38:30;;;;;;;31.30;16.30;;;-5.10;99.90;;;;;;5070619;28;20208;-68
2024/01/20 03:40:57;;;;;;;34.13;17.87;;;-5.10;99.90;;;;;;5060066;28;20412;-65
2024/01/20 03:43:23;;;;;;;33.27;18.33;;;-5.10;99.90;;;;;;5062471;28;20192;-68
2024/01/20 03:45:48;;;;;;;29.43;15.40;;;-5.20;99.90;;;;;;5076880;28;20430;-67
2024/01/20 03:48:14;;;;;;;38.80;17.13;;;-5.20;99.90;;;;;;5063441;28;21230;-68
2024/01/20 03:50:39;;;;;;;37.27;17.90;;;-5.20;99.90;;;;;;5064579;28;20241;-67
2024/01/20 03:53:05;;;;;;;28.63;16.53;;;-5.20;99.90;;;;;;5062295;28;20197;-67
2024/01/20 03:55:32;;;;;;;31.67;16.93;;;-5.30;99.90;;;;;;5056974;28;20206;-70
2024/01/20 03:57:57;;;;;;;33.63;16.50;;;-5.30;99.90;;;;;;5065075;28;20467;-68
2024/01/20 04:00:23;;;;;;;30.73;16.43;;;-5.30;99.90;;;;;;5070522;28;20853;-68
2024/01/20 04:02:49;;;;;;;24.70;14.47;;;-5.30;99.90;;;;;;5068055;28;20196;-69
2024/01/20 04:05:15;;;;;;;35.80;17.10;;;-5.30;99.90;;;;;;5074031;28;20474;-68
2024/01/20 04:07:40;;;;;;;40.77;17.97;;;-5.30;99.90;;;;;;5066489;28;20185;-70
2024/01/20 04:10:06;;;;;;;32.33;16.50;;;-5.20;99.90;;;;;;5060046;28;20863;-67
2024/01/20 04:12:32;;;;;;;33.50;16.53;;;-5.30;99.90;;;;;;5076623;28;20512;-66
2024/01/20 04:14:58;;;;;;;27.27;15.27;;;-5.40;99.90;;;;;;5069407;28;20485;-68
2024/01/20 04:17:23;;;;;;;30.73;15.77;;;-5.40;99.90;;;;;;5064128;28;20173;-68
2024/01/20 04:19:49;;;;;;;34.70;15.63;;;-5.40;99.90;;;;;;5069858;28;20209;-69
2024/01/20 04:22:15;;;;;;;30.50;16.90;;;-5.40;99.90;;;;;;5066897;28;20218;-68
2024/01/20 04:24:40;;;;;;;35.27;17.57;;;-5.50;99.90;;;;;;5069967;28;20177;-69
2024/01/20 04:27:06;;;;;;;36.03;15.90;;;-5.40;99.90;;;;;;5076961;28;20212;-69
2024/01/20 04:29:31;;;;;;;28.47;15.20;;;-5.40;99.90;;;;;;5067752;28;20261;-69
2024/01/20 04:31:57;;;;;;;29.60;15.50;;;-5.50;99.90;;;;;;5064588;28;20586;-69
2024/01/20 04:34:23;;;;;;;32.03;16.13;;;-5.50;99.90;;;;;;5066315;28;20197;-68
2024/01/20 04:36:48;;;;;;;34.80;15.83;;;-5.50;99.90;;;;;;5064122;28;20210;-68
2024/01/20 04:39:14;;;;;;;27.90;13.70;;;-5.50;99.90;;;;;;5068981;28;20248;-66
2024/01/20 04:41:40;;;;;;;27.97;16.13;;;-5.50;99.90;;;;;;5068570;28;20213;-67
2024/01/20 04:44:05;;;;;;;27.60;16.33;;;-5.50;99.90;;;;;;5059485;28;20570;-67
2024/01/20 04:46:31;;;;;;;29.17;15.63;;;-5.50;99.90;;;;;;5061287;28;20247;-68
2024/01/20 04:48:57;;;;;;;26.97;15.00;;;-5.50;99.90;;;;;;5063909;28;20501;-69
2024/01/20 04:51:23;;;;;;;34.30;18.93;;;-5.50;99.90;;;;;;5055920;28;20624;-68
2024/01/20 04:53:49;;;;;;;34.87;17.20;;;-5.50;99.90;;;;;;5069183;28;20201;-69
2024/01/20 04:56:24;;;;;;;29.57;16.03;;;-5.40;99.90;;;;;;5076264;28;20697;-69
2024/01/20 04:58:55;;;;;;;37.23;16.53;;;-5.50;99.90;;;;;;5067280;28;20244;-67
2024/01/20 05:01:21;;;;;;;27.77;15.97;;;-5.50;99.90;;;;;;5064271;28;20519;-70
2024/01/20 05:03:46;;;;;;;35.87;16.70;;;-5.50;99.90;;;;;;5063961;28;20448;-69
2024/01/20 05:06:12;;;;;;;30.27;18.07;;;-5.50;99.90;;;;;;5077386;28;20450;-67
2024/01/20 05:08:39;;;;;;;32.90;17.23;;;-5.50;99.90;;;;;;5062462;28;20276;-69
2024/01/20 05:11:04;;;;;;;39.73;17.30;;;-5.50;99.90;;;;;;5066453;28;20462;-69
2024/01/20 05:13:30;;;;;;;23.90;14.57;;;-5.50;99.90;;;;;;5060736;28;20259;-69
2024/01/20 05:15:56;;;;;;;36.50;16.07;;;-5.50;99.90;;;;;;5075397;28;20197;-67
2024/01/20 05:18:22;;;;;;;26.97;15.70;;;-5.60;99.90;;;;;;5070263;28;20467;-69
2024/01/20 05:20:48;;;;;;;36.60;16.60;;;-5.60;99.90;;;;;;5066053;28;20320;-69
2024/01/20 05:23:13;;;;;;;36.83;17.13;;;-5.60;99.90;;;;;;5074003;28;20184;-69
2024/01/20 05:25:39;;;;;;;41.37;17.00;;;-5.60;99.90;;;;;;5068041;28;20209;-67
2024/01/20 05:28:06;;;;;;;31.30;14.80;;;-5.60;99.90;;;;;;5074629;28;20197;-70
2024/01/20 05:30:31;;;;;;;34.97;18.40;;;-5.70;99.90;;;;;;5072891;28;20266;-70
2024/01/20 05:32:57;;;;;;;32.00;16.20;;;-5.70;99.90;;;;;;5062654;28;20424;-68
2024/01/20 05:35:23;;;;;;;39.67;17.70;;;-5.80;99.90;;;;;;5067985;28;20217;-67
2024/01/20 05:37:48;;;;;;;31.50;15.37;;;-5.80;99.90;;;;;;5066613;28;20199;-68
2024/01/20 05:40:14;;;;;;;30.30;15.40;;;-5.80;99.90;;;;;;5066547;28;20173;-69
2024/01/20 05:42:40;;;;;;;25.57;13.90;;;-5.90;99.90;;;;;;5072893;28;20539;-68
2024/01/20 05:45:08;;;;;;;34.40;15.13;;;-5.90;99.90;;;;;;5062963;28;20209;-69
2024/01/20 05:47:37;;;;;;;31.13;14.83;;;-5.90;99.90;;;;;;5060280;28;20281;-69
2024/01/20 05:50:04;;;;;;;29.30;14.17;;;-5.90;99.90;;;;;;5059563;28;20694;-68
2024/01/20 05:52:30;;;;;;;32.60;14.70;;;-5.90;99.90;;;;;;5071812;28;20431;-66
2024/01/20 05:54:55;;;;;;;35.47;17.40;;;-5.90;99.90;;;;;;5072987;28;20411;-68
2024/01/20 05:57:21;;;;;;;38.80;17.40;;;-5.90;99.90;;;;;;5059046;28;20204;-69
2024/01/20 05:59:46;;;;;;;31.63;17.67;;;-5.80;99.90;;;;;;5058874;28;20209;-69
2024/01/20 06:02:12;;;;;;;41.40;17.10;;;-5.80;99.90;;;;;;5072017;28;20311;-70
2024/01/20 06:04:38;;;;;;;40.23;17.90;;;-5.90;99.90;;;;;;5060589;28;20200;-70
2024/01/20 06:07:04;;;;;;;30.90;16.00;;;-5.90;99.90;;;;;;5072751;28;20288;-70
2024/01/20 06:09:29;;;;;;;32.70;15.83;;;-5.80;99.90;;;;;;5050282;28;20283;-71
2024/01/20 06:11:55;;;;;;;33.43;15.93;;;-5.70;99.90;;;;;;5047294;28;20427;-70
2024/01/20 06:14:21;;;;;;;28.13;16.03;;;-5.80;99.90;;;;;;5066333;28;20193;-68
2024/01/20 06:16:46;;;;;;;30.30;14.77;;;-5.90;99.90;;;;;;5057655;28;20280;-68
2024/01/20 06:19:12;;;;;;;35.23;17.07;;;-5.90;99.90;;;;;;5056295;28;20209;-70
2024/01/20 06:21:38;;;;;;;39.37;15.40;;;-5.90;99.90;;;;;;5056705;28;20184;-67
2024/01/20 06:24:04;;;;;;;32.77;16.53;;;-6.00;99.90;;;;;;5065255;28;20424;-69
2024/01/20 06:26:30;;;;;;;29.43;13.67;;;-6.00;99.90;;;;;;5072403;28;20208;-68
2024/01/20 06:28:55;;;;;;;29.33;14.93;;;-6.00;99.90;;;;;;5061127;28;20420;-68
2024/01/20 06:31:25;;;;;;;27.87;13.43;;;-6.00;99.90;;;;;;5045231;28;20194;-71
2024/01/20 06:33:52;;;;;;;32.20;14.17;;;-6.00;99.90;;;;;;5052849;28;20202;-67
2024/01/20 06:36:18;;;;;;;27.30;14.53;;;-6.00;99.90;;;;;;5071953;28;20458;-69
2024/01/20 06:38:44;;;;;;;33.97;15.13;;;-6.00;99.90;;;;;;5073036;28;20747;-71
2024/01/20 06:41:10;;;;;;;29.20;14.47;;;-6.10;99.90;;;;;;5057718;28;20480;-69
2024/01/20 06:43:35;;;;;;;25.47;13.90;;;-6.00;99.90;;;;;;5075077;28;20477;-69
2024/01/20 06:46:01;;;;;;;31.23;14.40;;;-6.10;99.90;;;;;;5046173;28;20246;-67
2024/01/20 06:48:32;;;;;;;36.53;15.90;;;-6.00;99.90;;;;;;5065236;28;20248;-70
2024/01/20 06:51:01;;;;;;;28.30;14.97;;;-6.10;99.90;;;;;;5060685;28;20228;-68
2024/01/20 06:53:30;;;;;;;23.80;13.20;;;-6.10;99.90;;;;;;5067701;28;20427;-67
2024/01/20 06:55:56;;;;;;;28.47;12.60;;;-6.10;99.90;;;;;;5067318;28;20524;-68
2024/01/20 06:58:23;;;;;;;26.30;14.17;;;-6.20;99.90;;;;;;5062422;28;20531;-69
2024/01/20 07:00:49;;;;;;;29.13;13.33;;;-6.20;99.90;;;;;;5064989;28;20473;-69
2024/01/20 07:03:15;;;;;;;27.03;14.90;;;-6.10;99.90;;;;;;5069900;28;20844;-69
2024/01/20 07:05:41;;;;;;;28.37;13.23;;;-6.10;99.90;;;;;;5069794;28;20486;-67
2024/01/20 07:08:06;;;;;;;31.50;14.47;;;-6.00;99.90;;;;;;5060919;28;20736;-69
2024/01/20 07:10:32;;;;;;;35.00;14.63;;;-6.00;99.90;;;;;;5071284;28;20415;-68
2024/01/20 07:12:58;;;;;;;26.27;13.17;;;-6.00;99.90;;;;;;5074923;28;20212;-69
2024/01/20 07:15:24;;;;;;;26.40;12.60;;;-6.00;99.90;;;;;;5068101;28;20205;-68
2024/01/20 07:17:50;;;;;;;30.70;14.03;;;-6.00;99.90;;;;;;5073097;28;20428;-70
2024/01/20 07:20:15;;;;;;;27.83;14.00;;;-6.00;99.90;;;;;;5059079;28;20204;-70
2024/01/20 07:22:41;;;;;;;27.70;15.67;;;-6.00;99.90;;;;;;5059610;28;20699;-71
2024/01/20 07:25:08;;;;;;;21.53;12.57;;;-6.10;99.90;;;;;;5074389;28;20241;-71
2024/01/20 07:27:34;;;;;;;25.93;12.40;;;-6.10;99.90;;;;;;5039944;28;20431;-71
2024/01/20 07:30:00;;;;;;;30.33;13.93;;;-6.00;99.90;;;;;;5068693;28;20428;-69
2024/01/20 07:32:26;;;;;;;26.67;13.33;;;-6.00;99.90;;;;;;5068242;28;20221;-69
2024/01/20 07:34:52;;;;;;;24.63;12.03;;;-6.10;99.90;;;;;;5055319;28;20403;-70
2024/01/20 07:37:17;;;;;;;24.33;13.50;;;-6.00;99.90;;;;;;5067328;28;20189;-70
2024/01/20 07:39:43;;;;;;;33.97;14.53;;;-6.00;99.90;;;;;;5068496;28;20899;-72
2024/01/20 07:42:10;;;;;;;29.03;13.93;;;-6.00;99.90;;;;;;5038469;28;20615;-70
2024/01/20 07:44:36;;;;;;;30.53;14.23;;;-6.00;99.90;;;;;;5040724;28;20183;-68
2024/01/20 07:47:02;;;;;;;29.00;13.17;;;-6.00;99.90;;;;;;5054260;28;20906;-69
2024/01/20 07:49:28;;;;;;;31.40;15.30;;;-5.90;99.90;;;;;;5046410;28;20416;-70
2024/01/20 07:51:53;;;;;;;22.90;13.10;;;-5.90;99.90;;;;;;5029709;28;20515;-68
2024/01/20 07:54:19;;;;;;;30.10;13.07;;;-5.90;99.90;;;;;;5048886;28;20580;-68
2024/01/20 07:56:44;;;;;;;24.67;12.43;;;-5.90;99.90;;;;;;5049076;28;20204;-69
2024/01/20 07:59:10;;;;;;;27.60;14.30;;;-5.90;99.90;;;;;;5046248;28;20209;-67
2024/01/20 08:01:36;;;;;;;27.70;13.77;;;-5.90;99.90;;;;;;5047913;28;20194;-68
2024/01/20 08:04:02;;;;;;;31.60;15.70;;;-5.80;99.90;;;;;;5046285;28;20446;-69
2024/01/20 08:06:28;;;;;;;28.37;13.20;;;-5.70;99.90;;;;;;5047572;28;20237;-68
2024/01/20 08:08:53;;;;;;;25.60;12.70;;;-5.70;99.90;;;;;;5044843;28;20421;-71
2024/01/20 08:11:19;;;;;;;29.97;15.20;;;-5.60;99.90;;;;;;5050095;28;20214;-69
2024/01/20 08:13:44;;;;;;;27.23;12.90;;;-5.60;99.90;;;;;;5052992;28;20563;-69
2024/01/20 08:16:10;;;;;;;26.73;14.00;;;-5.60;99.90;;;;;;5056512;28;20247;-70
2024/01/20 08:18:36;;;;;;;23.33;13.70;;;-5.50;99.90;;;;;;5044589;28;20654;-71
2024/01/20 08:21:06;;;;;;;26.97;13.93;;;-5.50;99.90;;;;;;5051766;28;20219;-71
2024/01/20 08:23:32;;;;;;;30.77;14.77;;;-5.40;99.90;;;;;;5060836;28;20181;-70
2024/01/20 08:25:58;;;;;;;31.23;15.50;;;-5.40;99.90;;;;;;5058060;28;20733;-71
2024/01/20 08:28:24;;;;;;;23.97;13.47;;;-5.30;99.90;;;;;;5033704;28;20515;-68
2024/01/20 08:30:50;;;;;;;29.03;14.60;;;-5.30;99.90;;;;;;5041801;28;20436;-70
2024/01/20 08:33:15;;;;;;;30.17;14.03;;;-5.30;99.90;;;;;;5026583;28;20198;-70
2024/01/20 08:35:41;;;;;;;27.70;12.90;;;-5.20;99.90;;;;;;5045940;28;20218;-73
2024/01/20 08:38:06;;;;;;;25.27;13.23;;;-5.20;99.90;;;;;;5053206;28;20530;-69
2024/01/20 08:40:32;;;;;;;30.80;13.37;;;-5.20;99.90;;;;;;5049410;28;20480;-71
2024/01/20 08:42:57;;;;;;;25.57;12.43;;;-5.10;99.90;;;;;;5061196;28;20272;-68
2024/01/20 08:45:23;;;;;;;25.73;12.83;;;-5.10;99.90;;;;;;5069160;28;20220;-69
2024/01/20 08:47:49;;;;;;;27.20;13.90;;;-5.00;99.90;;;;;;5067437;28;20198;-70
2024/01/20 08:50:16;;;;;;;25.77;13.13;;;-5.00;99.90;;;;;;5068530;28;20256;-69
2024/01/20 08:52:41;;;;;;;28.80;14.83;;;-4.90;99.90;;;;;;5063030;28;20452;-71
2024/01/20 08:55:07;;;;;;;28.50;14.03;;;-4.90;99.90;;;;;;5080116;28;20272;-70
2024/01/20 08:57:33;;;;;;;27.27;13.90;;;-4.80;99.90;;;;;;5073950;28;20189;-69
2024/01/20 08:59:59;;;;;;;26.93;12.73;;;-4.80;99.90;;;;;;5072862;28;20436;-71
2024/01/20 09:02:25;;;;;;;25.93;13.70;;;-4.70;99.90;;;;;;5069976;28;20425;-71
2024/01/20 09:04:50;;;;;;;25.50;13.23;;;-4.60;99.90;;;;;;5078498;28;20185;-70
2024/01/20 09:07:16;;;;;;;26.10;14.53;;;-4.60;99.90;;;;;;5066558;28;20204;-71
2024/01/20 09:09:41;;;;;;;25.80;12.90;;;-4.50;99.90;;;;;;5072882;28;20563;-68
2024/01/20 09:12:07;;;;;;;28.87;14.87;;;-4.50;99.90;;;;;;5078293;28;20293;-70
2024/01/20 09:14:33;;;;;;;27.40;13.83;;;-4.30;99.90;;;;;;5075045;28;20204;-70
2024/01/20 09:16:59;;;;;;;27.47;13.93;;;-4.50;99.90;;;;;;5065330;28;20213;-68
2024/01/20 09:19:24;;;;;;;26.33;13.93;;;-4.20;99.90;;;;;;5061897;28;20233;-70
2024/01/20 09:21:50;;;;;;;26.90;14.27;;;-4.30;99.90;;;;;;5076904;28;20697;-70
2024/01/20 09:24:15;;;;;;;30.20;14.60;;;-4.20;99.90;;;;;;5072631;28;20193;-71
2024/01/20 09:26:41;;;;;;;27.63;14.27;;;-4.10;99.90;;;;;;5065878;28;20210;-72
2024/01/20 09:29:08;;;;;;;37.97;15.53;;;-4.10;99.90;;;;;;5062117;28;20174;-69
2024/01/20 09:31:34;;;;;;;32.20;18.20;;;-4.00;99.90;;;;;;5075021;28;20418;-74
2024/01/20 09:33:59;;;;;;;36.80;15.80;;;-4.00;99.90;;;;;;5077339;28;20264;-70
2024/01/20 09:36:25;;;;;;;29.03;15.97;;;-3.90;99.90;;;;;;5064868;28;20292;-69
2024/01/20 09:38:51;;;;;;;29.97;15.50;;;-3.90;99.90;;;;;;5062318;28;20222;-72
2024/01/20 09:41:16;;;;;;;31.80;15.93;;;-3.70;99.90;;;;;;5068881;28;20221;-69
2024/01/20 09:43:43;;;;;;;28.83;15.70;;;-3.70;99.90;;;;;;5079467;28;20461;-71
2024/01/20 09:46:09;;;;;;;24.03;13.23;;;-3.80;99.90;;;;;;5065288;28;20209;-71
2024/01/20 09:48:35;;;;;;;28.43;13.10;;;-3.60;99.90;;;;;;5071559;28;20420;-71
2024/01/20 09:51:01;;;;;;;21.20;13.43;;;-3.50;99.90;;;;;;5072231;28;20414;-69
2024/01/20 09:53:28;;;;;;;27.40;14.30;;;-3.60;99.90;;;;;;5076988;28;20211;-71
2024/01/20 09:55:55;;;;;;;26.23;14.37;;;-3.50;99.90;;;;;;5056171;28;20432;-72
2024/01/20 09:58:23;;;;;;;27.23;13.20;;;-3.40;99.90;;;;;;5071987;28;20810;-73
2024/01/20 10:00:50;;;;;;;30.13;14.70;;;-3.20;99.90;;;;;;5038798;28;20477;-72
2024/01/20 10:03:17;;;;;;;23.37;13.27;;;-3.20;99.90;;;;;;5033612;28;20887;-70
2024/01/20 10:05:43;;;;;;;28.27;14.23;;;-3.20;99.90;;;;;;5071591;28;20439;-71
2024/01/20 10:08:08;;;;;;;32.83;17.30;;;-3.20;99.90;;;;;;5069910;28;20431;-70
2024/01/20 10:10:34;;;;;;;26.57;15.43;;;-3.10;99.90;;;;;;5078183;28;20678;-72
2024/01/20 10:13:00;;;;;;;25.57;14.00;;;-3.10;99.90;;;;;;5078456;28;20196;-73
2024/01/20 10:15:29;;;;;;;25.60;13.57;;;-3.00;99.90;;;;;;5079656;28;20447;-72
2024/01/20 10:17:56;;;;;;;32.93;15.40;;;-3.00;99.90;;;;;;5076299;28;20431;-71
2024/01/20 10:20:24;;;;;;;26.93;14.83;;;-2.90;99.90;;;;;;5073027;28;20535;-73
2024/01/20 10:22:51;;;;;;;24.47;14.20;;;-2.70;99.90;;;;;;5072810;28;20412;-71
2024/01/20 10:25:20;;;;;;;26.77;14.80;;;-2.80;99.90;;;;;;5072970;28;20490;-72
2024/01/20 10:27:50;;;;;;;31.03;15.00;;;-2.60;99.90;;;;;;5059984;28;20520;-72
2024/01/20 10:30:23;;;;;;;26.70;13.00;;;-2.60;99.90;;;;;;5066844;28;20620;-73
2024/01/20 10:32:49;;;;;;;26.80;15.73;;;-2.60;99.90;;;;;;5080268;28;20412;-73
2024/01/20 10:35:15;;;;;;;29.73;12.73;;;-2.60;99.90;;;;;;5030142;28;20475;-72
2024/01/20 10:37:46;;;;;;;22.37;11.83;;;-2.40;99.90;;;;;;5059913;28;20454;-69
2024/01/20 10:40:13;;;;;;;23.27;13.47;;;-2.50;99.90;;;;;;5073858;28;20415;-72
2024/01/20 10:42:47;;;;;;;25.50;13.30;;;-2.30;99.90;;;;;;5058698;28;20449;-70
2024/01/20 10:45:17;;;;;;;23.37;14.60;;;-2.20;99.90;;;;;;5049023;28;20455;-72
2024/01/20 10:47:55;;;;;;;25.93;14.37;;;-2.20;99.90;;;;;;5029575;28;20465;-71
2024/01/20 10:50:23;;;;;;;25.07;13.50;;;-2.20;99.90;;;;;;5047494;28;20425;-73
2024/01/20 10:52:50;;;;;;;26.03;14.63;;;-2.20;99.90;;;;;;5053008;28;20478;-74
2024/01/20 10:55:17;;;;;;;22.87;13.10;;;-2.20;99.90;;;;;;5028375;28;20504;-72
2024/01/20 10:57:43;;;;;;;28.50;15.37;;;-2.20;99.90;;;;;;5057681;28;20433;-72
2024/01/20 11:00:11;;;;;;;31.57;15.27;;;-2.10;99.90;;;;;;5037230;28;20456;-71
2024/01/20 11:02:36;;;;;;;27.43;13.70;;;-1.90;99.90;;;;;;5032610;28;20428;-73
2024/01/20 11:05:03;;;;;;;23.37;13.00;;;-1.90;99.90;;;;;;5050791;28;20505;-71
2024/01/20 11:07:29;;;;;;;26.90;14.10;;;-1.90;99.90;;;;;;5044161;28;20421;-73
2024/01/20 11:09:59;;;;;;;21.07;13.53;;;-1.90;99.90;;;;;;5043318;28;20730;-73
2024/01/20 11:12:27;;;;;;;21.97;13.83;;;-1.70;99.90;;;;;;5030451;28;20208;-72
2024/01/20 11:14:55;;;;;;;22.50;12.80;;;-1.70;99.90;;;;;;5054212;28;20417;-73
2024/01/20 11:17:22;;;;;;;22.87;12.60;;;-1.70;99.90;;;;;;5042170;28;20425;-72
2024/01/20 11:19:47;;;;;;;24.27;14.43;;;-1.60;99.90;;;;;;5045780;28;20467;-71
2024/01/20 11:22:35;;;;;;;25.17;15.40;;;-1.60;99.90;;;;;;5048834;28;20408;-73
2024/01/20 11:25:07;;;;;;;26.43;15.70;;;-1.50;99.90;;;;;;5049289;28;20188;-73
2024/01/20 11:27:47;;;;;;;29.50;14.70;;;-1.60;99.90;;;;;;5049175;28;20409;-72
2024/01/20 11:30:34;;;;;;;23.13;13.70;;;-1.40;99.90;;;;;;5056175;28;20459;-72
2024/01/20 11:33:00;;;;;;;27.17;14.00;;;-1.40;99.90;;;;;;5047807;28;20443;-74
2024/01/20 11:35:27;;;;;;;30.07;15.37;;;-1.40;99.90;;;;;;5056597;28;20436;-73
2024/01/20 11:37:57;;;;;;;24.90;14.67;;;-1.30;99.90;;;;;;5055291;28;20405;-71
2024/01/20 11:40:23;;;;;;;26.90;13.80;;;-1.30;99.90;;;;;;5056453;28;20416;-74
2024/01/20 11:42:50;;;;;;;25.47;15.10;;;-1.30;99.90;;;;;;5057792;28;20490;-71
2024/01/20 11:45:16;;;;;;;28.23;15.80;;;-1.20;99.90;;;;;;5082436;28;20431;-73
2024/01/20 11:47:42;;;;;;;28.83;16.20;;;-1.30;99.90;;;;;;5078498;28;20185;-73
2024/01/20 11:50:09;;;;;;;23.70;14.20;;;-1.30;99.90;;;;;;5062364;28;20867;-73
2024/01/20 11:52:35;;;;;;;30.17;15.03;;;-1.20;99.90;;;;;;5069769;28;20415;-75
2024/01/20 11:55:01;;;;;;;24.70;14.20;;;-1.30;99.90;;;;;;5045453;28;20459;-74
2024/01/20 11:57:29;;;;;;;29.30;14.20;;;-1.20;99.90;;;;;;5078759;28;20449;-74
2024/01/20 11:59:59;;;;;;;24.83;14.53;;;-1.20;99.90;;;;;;5081358;28;20209;-74
2024/01/20 12:02:27;;;;;;;26.37;15.60;;;-1.30;99.90;;;;;;5039092;28;20450;-71
2024/01/20 12:04:54;;;;;;;25.93;14.07;;;-1.20;99.90;;;;;;5081252;28;20468;-72
2024/01/20 12:07:20;;;;;;;27.47;15.90;;;-1.10;99.90;;;;;;5079138;28;20415;-73
2024/01/20 12:09:49;;;;;;;27.93;15.47;;;-1.20;99.90;;;;;;5057897;28;20471;-72
2024/01/20 12:12:16;;;;;;;26.20;13.93;;;-0.90;99.90;;;;;;5080566;28;20415;-73
2024/01/20 12:14:43;;;;;;;21.43;12.90;;;-0.90;99.90;;;;;;5080924;28;20426;-73
2024/01/20 12:17:10;;;;;;;22.30;13.40;;;-0.90;99.90;;;;;;5080766;28;20871;-73
2024/01/20 12:19:39;;;;;;;26.57;13.17;;;-0.70;99.90;;;;;;5044936;28;20751;-73
2024/01/20 12:22:10;;;;;;;25.60;13.50;;;-0.70;99.90;;;;;;5080017;28;20415;-73
2024/01/20 12:24:37;;;;;;;26.57;14.77;;;-0.70;99.90;;;;;;5068434;28;20431;-74